CheckWX is a tool to help pilots better visualize weather data.  It is not intended as a substitute for an official pre-flight weather briefing.

06:47:02 UTC

DTTN METAR
Jendouba Airport
Jendouba, Tunisia
Current

47 mins ago

DTTN 230600Z VRB02KT 9999 FEW020 12/11 Q1004
Observed
Apr-23 @ 06:00 UTC
Wind
  • Variable at 2 KTS
Visibility
10,000+ meters
Flight Rules
VFR
Cloud Levels
  • Few at 2,000' AGL
Temperature
12°C / 54°F
Dewpoint
11°C / 52°F
Humidity
94%
Altimeter
29.65" Hg
Pressure
1003.92 hPa
Previous

2 hours ago

DTTN 230500Z VRB02KT 9999 FEW020 10/09 Q1004
Observed
Apr-23 @ 05:00 UTC
Wind
  • Variable at 2 KTS
Visibility
10,000+ meters
Flight Rules
VFR
Cloud Levels
  • Few at 2,000' AGL
Temperature
10°C / 50°F
Dewpoint
C / 48°F
Humidity
94%
Altimeter
29.65" Hg
Pressure
1003.92 hPa
Previous

5 hours ago

DTTN 230200Z VRB02KT 8000 FEW020 11/10 Q1003
Observed
Apr-23 @ 02:00 UTC
Wind
  • Variable at 2 KTS
Visibility
7,998 meters
Flight Rules
MVFR
Cloud Levels
  • Few at 2,000' AGL
Temperature
11°C / 52°F
Dewpoint
10°C / 50°F
Humidity
94%
Altimeter
29.62" Hg
Pressure
1002.92 hPa